createdAt,value
2018-06-04T00:03:25.117Z,2.73
2018-06-04T00:09:20.136Z,2.84
2018-06-04T00:15:15.189Z,3.1
2018-06-04T00:21:10.182Z,3.45
2018-06-04T00:27:05.169Z,3.81
2018-06-04T00:33:00.148Z,4.1
2018-06-04T00:38:55.143Z,4.04
2018-06-04T00:44:50.213Z,3.97
2018-06-04T00:50:45.171Z,4.26
2018-06-04T00:56:40.156Z,4.65
2018-06-04T01:02:35.190Z,4.81
2018-06-04T01:08:30.140Z,5.22
2018-06-04T01:14:25.149Z,5.3
2018-06-04T01:20:20.190Z,5.09
2018-06-04T01:26:15.178Z,4.48
2018-06-04T01:32:10.157Z,5.04
2018-06-04T01:38:05.173Z,4.66
2018-06-04T01:44:00.183Z,5.1
2018-06-04T01:49:55.240Z,4.31
2018-06-04T01:55:50.281Z,4.59
2018-06-04T02:01:45.196Z,4.18
2018-06-04T02:07:40.196Z,3.92
2018-06-04T02:13:35.191Z,3.65
2018-06-04T02:19:30.212Z,3.47
2018-06-04T02:25:25.169Z,3.32
2018-06-04T02:31:20.206Z,3.35
2018-06-04T02:37:15.207Z,3.58
2018-06-04T02:43:10.231Z,3.08
2018-06-04T02:49:05.242Z,2.76
2018-06-04T02:55:00.186Z,3
2018-06-04T03:00:55.196Z,2.85
2018-06-04T03:06:50.225Z,2.94
2018-06-04T03:12:45.266Z,3.28
2018-06-04T03:18:40.196Z,3.22
2018-06-04T03:24:35.295Z,3.04
2018-06-04T03:30:30.233Z,3.64
2018-06-04T03:36:25.209Z,2.83
2018-06-04T03:42:20.240Z,2.98
2018-06-04T03:48:15.239Z,3.43
2018-06-04T03:54:10.250Z,3.59
2018-06-04T04:00:05.379Z,3.78
2018-06-04T04:06:00.231Z,4.01
2018-06-04T04:11:55.226Z,3.99
2018-06-04T04:17:50.262Z,4.14
2018-06-04T04:23:45.238Z,3.81
2018-06-04T04:29:40.244Z,4.09
2018-06-04T04:35:35.316Z,4.36
2018-06-04T04:41:30.223Z,3.86
2018-06-04T04:47:25.247Z,3.46
2018-06-04T04:53:20.226Z,3.1
2018-06-04T04:59:15.267Z,3.55
2018-06-04T05:05:10.251Z,3.32
2018-06-04T05:11:05.283Z,3.6
2018-06-04T05:17:00.267Z,3.29
2018-06-04T05:22:55.247Z,3.32
2018-06-04T05:28:50.314Z,3.67
2018-06-04T05:34:45.228Z,3.28
2018-06-04T05:40:40.292Z,3.95
2018-06-04T05:46:35.284Z,4.06
2018-06-04T05:52:30.276Z,4.4
2018-06-04T05:58:25.301Z,6.5
2018-06-04T06:04:20.272Z,7.77
2018-06-04T06:10:15.254Z,6.63
2018-06-04T06:16:10.277Z,6.08
2018-06-04T06:22:05.525Z,6.3
2018-06-04T06:28:00.281Z,8.47
2018-06-04T06:33:55.300Z,6.64
2018-06-04T06:39:50.286Z,6.6
2018-06-04T06:45:45.313Z,6.47
2018-06-04T06:51:40.283Z,8.19
2018-06-04T06:57:35.289Z,6.91
2018-06-04T07:03:30.306Z,7.08
2018-06-04T07:09:25.315Z,6.09
2018-06-04T07:15:20.337Z,6.73
2018-06-04T07:21:15.344Z,4.84
2018-06-04T07:27:10.299Z,4
2018-06-04T07:33:05.312Z,3.67
2018-06-04T07:39:00.327Z,3.51
2018-06-04T07:44:55.333Z,3.33
2018-06-04T07:50:50.341Z,4.98
2018-06-04T07:56:45.319Z,5.38
2018-06-04T08:02:40.516Z,3.62
2018-06-04T08:08:35.328Z,9.8
2018-06-04T08:14:30.325Z,9.98
2018-06-04T08:20:25.337Z,6.73
2018-06-04T08:26:20.342Z,4.24
2018-06-04T08:32:15.378Z,3.67
2018-06-04T08:38:10.315Z,7.24
2018-06-04T08:44:05.305Z,5.6
2018-06-04T08:50:00.355Z,4.6
2018-06-04T08:55:55.379Z,4.39
2018-06-04T09:01:50.524Z,4.24
2018-06-04T09:07:45.357Z,4.54
2018-06-04T09:13:41.202Z,4.45
2018-06-04T09:19:35.361Z,4.12
2018-06-04T09:25:30.370Z,3.96
2018-06-04T09:31:25.361Z,3.5
2018-06-04T09:37:20.453Z,3.49
2018-06-04T09:43:15.433Z,4.81
2018-06-04T09:49:10.537Z,4.48
2018-06-04T09:55:05.545Z,9.51
2018-06-04T10:01:00.374Z,6.48
2018-06-04T10:06:55.365Z,6.71
2018-06-04T10:12:50.351Z,5.86
2018-06-04T10:18:45.699Z,5.81
2018-06-04T10:24:40.409Z,4.06
2018-06-04T10:30:35.459Z,4.01
2018-06-04T10:36:30.378Z,4.01
2018-06-04T10:42:25.362Z,4.49
2018-06-04T10:48:20.407Z,4.47
2018-06-04T10:54:15.368Z,4.49
2018-06-04T11:00:10.391Z,4.31
2018-06-04T11:06:05.406Z,3.74
2018-06-04T11:12:00.388Z,4.05
2018-06-04T11:17:55.412Z,3.78
2018-06-04T11:23:50.385Z,3.83
2018-06-04T11:29:45.376Z,4.01
2018-06-04T11:35:40.425Z,3.81
2018-06-04T11:41:35.407Z,3.76
2018-06-04T11:47:30.419Z,3.65
2018-06-04T11:53:25.447Z,3.39
2018-06-04T11:59:20.407Z,3.54
2018-06-04T12:05:15.436Z,3.86
2018-06-04T12:17:05.481Z,3.67
2018-06-04T12:17:05.523Z,3.89
2018-06-04T12:23:00.432Z,3.99
2018-06-04T12:28:55.411Z,4.16
2018-06-04T12:34:50.431Z,4.26
2018-06-04T12:40:45.430Z,4.98
2018-06-04T12:46:40.434Z,5.29
2018-06-04T12:52:35.405Z,4.89
2018-06-04T12:58:30.529Z,4.54
2018-06-04T13:16:15.431Z,6.16
2018-06-04T13:22:10.435Z,4.84
2018-06-04T13:28:05.491Z,4.88
2018-06-04T13:39:55.753Z,4.26
2018-06-04T13:39:55.814Z,4.79
2018-06-04T13:45:50.600Z,4.27
2018-06-04T13:51:45.471Z,4.74
2018-06-04T13:57:40.489Z,3.65
2018-06-04T14:03:35.435Z,3.29
2018-06-04T14:09:30.466Z,3.28
2018-06-04T14:15:25.528Z,2.99
2018-06-04T14:21:20.457Z,4.03
2018-06-04T14:27:15.476Z,3
2018-06-04T14:33:10.492Z,3.26
2018-06-04T14:39:05.449Z,9.65
2018-06-04T14:45:00.474Z,6.86
2018-06-04T14:50:55.461Z,3.84
2018-06-04T14:56:50.962Z,4.02
2018-06-04T17:36:35.614Z,2.48
2018-06-04T17:36:35.620Z,2.48
2018-06-04T17:36:35.643Z,4.3
2018-06-04T17:36:35.656Z,2.48
2018-06-04T17:36:35.707Z,2.48
2018-06-04T17:36:35.746Z,2.48
2018-06-04T17:36:35.779Z,2.48
2018-06-04T17:36:35.821Z,2.48
2018-06-04T17:36:35.838Z,2.48
2018-06-04T17:36:35.862Z,2.48
2018-06-04T17:36:35.897Z,2.48
2018-06-04T17:36:35.941Z,2.48
2018-06-04T17:36:35.948Z,2.48
2018-06-04T17:36:36.029Z,2.48
2018-06-04T17:36:36.076Z,2.48
2018-06-04T17:36:36.127Z,2.48
2018-06-04T17:36:36.129Z,2.48
2018-06-04T17:36:36.141Z,2.48
2018-06-04T17:36:36.165Z,2.48
2018-06-04T17:36:36.187Z,2.48
2018-06-04T17:36:36.206Z,2.97
2018-06-04T17:36:36.227Z,2.97
2018-06-04T17:36:36.259Z,2.97
2018-06-04T17:36:36.269Z,2.97
2018-06-04T17:36:36.356Z,2.97
2018-06-04T17:36:36.365Z,2.97
2018-06-04T17:36:36.406Z,2.97
2018-06-04T17:42:30.523Z,2.56
2018-06-04T17:48:25.558Z,2.62
2018-06-04T17:54:20.573Z,2.69
2018-06-04T18:00:15.601Z,2.59
2018-06-04T18:23:55.662Z,2.3
2018-06-04T18:53:30.558Z,2.18
2018-06-04T18:53:30.588Z,1.6
2018-06-04T18:53:30.613Z,1.6
2018-06-04T18:53:30.657Z,1.6
2018-06-04T18:53:30.670Z,1.6
2018-06-04T18:59:25.532Z,2.33
2018-06-04T19:05:20.572Z,1.37
2018-06-04T19:11:16.001Z,1.36
2018-06-04T19:17:10.526Z,1.67
2018-06-04T19:23:05.639Z,1.51
2018-06-04T19:40:50.588Z,1.67
2018-06-04T19:40:50.600Z,1.53
2018-06-04T19:46:45.593Z,1.71
2018-06-04T19:52:40.574Z,1.74
2018-06-04T20:10:25.642Z,1.62
2018-06-04T20:10:25.647Z,1.49
2018-06-04T20:10:25.780Z,1.49
2018-06-04T20:16:20.561Z,1.77
2018-06-04T20:22:15.622Z,1.7
2018-06-04T20:28:10.623Z,1.81
2018-06-04T20:34:05.955Z,1.94
2018-06-04T20:40:00.592Z,1.73
2018-06-04T20:45:55.579Z,1.68
2018-06-04T20:51:50.659Z,1.8
2018-06-04T20:57:45.661Z,2.07
2018-06-04T21:03:40.593Z,1.85
2018-06-04T21:09:35.602Z,1.4
2018-06-04T21:15:30.887Z,1.93
2018-06-04T21:21:25.609Z,1.91
2018-06-04T21:27:20.599Z,1.63
2018-06-04T21:33:15.574Z,1.46
2018-06-04T21:39:10.636Z,1.82
2018-06-04T21:51:00.658Z,1.53
2018-06-04T21:51:00.667Z,1.73
2018-06-04T22:20:35.625Z,1.96
2018-06-04T22:20:35.672Z,1.93
2018-06-04T22:20:35.685Z,1.93
2018-06-04T22:20:35.740Z,1.93
2018-06-04T22:20:35.766Z,1.93
2018-06-04T22:32:25.596Z,1.88
